sensor_id;sensor_type;location;lat;lon;timestamp;pressure;altitude;pressure_sealevel;temperature;humidity
30021;BME280;16861;52.294;7.760;2022-07-23T00:00:10;100101.59;;;19.08;57.53
30021;BME280;16861;52.294;7.760;2022-07-23T00:02:37;100106.50;;;19.13;57.97
30021;BME280;16861;52.294;7.760;2022-07-23T00:05:04;100095.69;;;19.14;57.83
30021;BME280;16861;52.294;7.760;2022-07-23T00:07:30;100090.97;;;19.18;57.53
30021;BME280;16861;52.294;7.760;2022-07-23T00:09:57;100101.47;;;19.20;57.55
30021;BME280;16861;52.294;7.760;2022-07-23T00:12:23;100106.53;;;19.23;57.73
30021;BME280;16861;52.294;7.760;2022-07-23T00:14:50;100116.22;;;19.24;57.97
30021;BME280;16861;52.294;7.760;2022-07-23T00:17:17;100118.63;;;19.27;57.84
30021;BME280;16861;52.294;7.760;2022-07-23T00:19:44;100106.84;;;19.30;58.05
30021;BME280;16861;52.294;7.760;2022-07-23T00:22:11;100116.41;;;19.32;58.20
30021;BME280;16861;52.294;7.760;2022-07-23T00:24:37;100110.06;;;19.33;58.19
30021;BME280;16861;52.294;7.760;2022-07-23T00:27:04;100115.16;;;19.36;58.37
30021;BME280;16861;52.294;7.760;2022-07-23T00:29:31;100115.03;;;19.38;58.73
30021;BME280;16861;52.294;7.760;2022-07-23T00:31:57;100113.06;;;19.40;58.61
30021;BME280;16861;52.294;7.760;2022-07-23T00:34:24;100106.63;;;19.43;58.14
30021;BME280;16861;52.294;7.760;2022-07-23T00:36:51;100102.09;;;19.43;57.99
30021;BME280;16861;52.294;7.760;2022-07-23T00:39:20;100103.78;;;19.44;57.95
30021;BME280;16861;52.294;7.760;2022-07-23T00:41:50;100101.84;;;19.46;57.89
30021;BME280;16861;52.294;7.760;2022-07-23T00:44:20;100100.97;;;19.46;58.21
30021;BME280;16861;52.294;7.760;2022-07-23T00:46:50;100102.81;;;19.45;58.17
30021;BME280;16861;52.294;7.760;2022-07-23T00:49:20;100101.84;;;19.46;57.99
30021;BME280;16861;52.294;7.760;2022-07-23T00:51:48;100095.63;;;19.46;58.09
30021;BME280;16861;52.294;7.760;2022-07-23T00:54:19;100099.28;;;19.45;58.42
30021;BME280;16861;52.294;7.760;2022-07-23T00:56:46;100096.63;;;19.45;57.68
30021;BME280;16861;52.294;7.760;2022-07-23T00:59:14;100097.63;;;19.44;57.82
30021;BME280;16861;52.294;7.760;2022-07-23T01:01:40;100094.22;;;19.42;57.92
30021;BME280;16861;52.294;7.760;2022-07-23T01:04:07;100093.53;;;19.39;57.90
30021;BME280;16861;52.294;7.760;2022-07-23T01:06:35;100107.00;;;19.38;58.22
30021;BME280;16861;52.294;7.760;2022-07-23T01:09:06;100104.47;;;19.36;58.22
30021;BME280;16861;52.294;7.760;2022-07-23T01:11:34;100102.78;;;19.35;58.37
30021;BME280;16861;52.294;7.760;2022-07-23T01:14:13;100095.19;;;19.31;58.97
30021;BME280;16861;52.294;7.760;2022-07-23T01:16:41;100086.06;;;19.33;58.21
30021;BME280;16861;52.294;7.760;2022-07-23T01:19:08;100074.56;;;19.33;58.79
30021;BME280;16861;52.294;7.760;2022-07-23T01:21:43;100077.34;;;19.31;59.10
30021;BME280;16861;52.294;7.760;2022-07-23T01:24:11;100072.00;;;19.31;58.74
30021;BME280;16861;52.294;7.760;2022-07-23T01:26:38;100072.16;;;19.30;58.86
30021;BME280;16861;52.294;7.760;2022-07-23T01:29:05;100077.63;;;19.28;59.12
30021;BME280;16861;52.294;7.760;2022-07-23T01:31:32;100075.94;;;19.27;59.02
30021;BME280;16861;52.294;7.760;2022-07-23T01:33:59;100061.03;;;19.24;59.05
30021;BME280;16861;52.294;7.760;2022-07-23T01:36:26;100066.38;;;19.24;58.89
30021;BME280;16861;52.294;7.760;2022-07-23T01:38:52;100064.84;;;19.22;59.08
30021;BME280;16861;52.294;7.760;2022-07-23T01:41:20;100069.31;;;19.21;59.42
30021;BME280;16861;52.294;7.760;2022-07-23T01:43:47;100064.09;;;19.20;59.17
30021;BME280;16861;52.294;7.760;2022-07-23T01:46:14;100057.94;;;19.19;58.86
30021;BME280;16861;52.294;7.760;2022-07-23T01:48:42;100056.28;;;19.18;59.27
30021;BME280;16861;52.294;7.760;2022-07-23T01:51:09;100052.03;;;19.16;59.38
30021;BME280;16861;52.294;7.760;2022-07-23T01:53:36;100050.34;;;19.14;59.38
30021;BME280;16861;52.294;7.760;2022-07-23T01:56:02;100052.31;;;19.12;59.08
30021;BME280;16861;52.294;7.760;2022-07-23T01:58:30;100056.22;;;19.08;59.14
30021;BME280;16861;52.294;7.760;2022-07-23T02:00:56;100049.34;;;19.06;59.20
30021;BME280;16861;52.294;7.760;2022-07-23T02:03:24;100041.72;;;19.01;59.07
30021;BME280;16861;52.294;7.760;2022-07-23T02:05:51;100046.34;;;18.99;59.21
30021;BME280;16861;52.294;7.760;2022-07-23T02:08:17;100055.59;;;18.95;58.95
30021;BME280;16861;52.294;7.760;2022-07-23T02:10:44;100052.47;;;18.89;59.07
30021;BME280;16861;52.294;7.760;2022-07-23T02:13:11;100051.06;;;18.85;59.17
30021;BME280;16861;52.294;7.760;2022-07-23T02:15:46;100052.31;;;18.81;59.40
30021;BME280;16861;52.294;7.760;2022-07-23T02:18:13;100056.22;;;18.77;58.83
30021;BME280;16861;52.294;7.760;2022-07-23T02:20:40;100045.94;;;18.72;59.24
30021;BME280;16861;52.294;7.760;2022-07-23T02:23:07;100042.72;;;18.69;59.27
30021;BME280;16861;52.294;7.760;2022-07-23T02:25:34;100050.00;;;18.67;59.46
30021;BME280;16861;52.294;7.760;2022-07-23T02:28:00;100056.31;;;18.66;59.48
30021;BME280;16861;52.294;7.760;2022-07-23T02:30:27;100054.63;;;18.65;59.46
30021;BME280;16861;52.294;7.760;2022-07-23T02:32:55;100047.63;;;18.64;59.74
30021;BME280;16861;52.294;7.760;2022-07-23T02:35:21;100049.41;;;18.63;59.86
30021;BME280;16861;52.294;7.760;2022-07-23T02:37:48;100053.78;;;18.64;60.33
30021;BME280;16861;52.294;7.760;2022-07-23T02:40:16;100052.09;;;18.63;60.18
30021;BME280;16861;52.294;7.760;2022-07-23T02:42:43;100054.63;;;18.65;60.30
30021;BME280;16861;52.294;7.760;2022-07-23T02:45:10;100046.50;;;18.66;60.53
30021;BME280;16861;52.294;7.760;2022-07-23T02:47:36;100042.00;;;18.67;60.43
30021;BME280;16861;52.294;7.760;2022-07-23T02:50:03;100042.84;;;18.67;60.41
30021;BME280;16861;52.294;7.760;2022-07-23T02:52:31;100047.19;;;18.68;60.33
30021;BME280;16861;52.294;7.760;2022-07-23T02:54:58;100048.06;;;18.69;60.30
30021;BME280;16861;52.294;7.760;2022-07-23T02:57:25;100049.88;;;18.68;60.26
30021;BME280;16861;52.294;7.760;2022-07-23T02:59:51;100049.16;;;18.66;59.87
30021;BME280;16861;52.294;7.760;2022-07-23T03:02:18;100048.31;;;18.66;59.71
30021;BME280;16861;52.294;7.760;2022-07-23T03:04:44;100049.56;;;18.61;59.63
30021;BME280;16861;52.294;7.760;2022-07-23T03:07:11;100051.66;;;18.58;59.43
30021;BME280;16861;52.294;7.760;2022-07-23T03:09:38;100065.34;;;18.53;59.46
30021;BME280;16861;52.294;7.760;2022-07-23T03:12:04;100059.47;;;18.49;59.19
30021;BME280;16861;52.294;7.760;2022-07-23T03:14:39;100059.00;;;18.44;59.24
30021;BME280;16861;52.294;7.760;2022-07-23T03:17:06;100060.38;;;18.39;59.59
30021;BME280;16861;52.294;7.760;2022-07-23T03:19:32;100057.09;;;18.35;59.78
30021;BME280;16861;52.294;7.760;2022-07-23T03:21:59;100065.38;;;18.32;59.63
30021;BME280;16861;52.294;7.760;2022-07-23T03:24:25;100054.97;;;18.29;60.08
30021;BME280;16861;52.294;7.760;2022-07-23T03:27:11;100055.22;;;18.26;59.69
30021;BME280;16861;52.294;7.760;2022-07-23T03:29:37;100056.47;;;18.21;59.72
30021;BME280;16861;52.294;7.760;2022-07-23T03:32:04;100053.09;;;18.19;60.05
30021;BME280;16861;52.294;7.760;2022-07-23T03:34:31;100063.19;;;18.16;60.15
30021;BME280;16861;52.294;7.760;2022-07-23T03:36:57;100056.25;;;18.13;60.21
30021;BME280;16861;52.294;7.760;2022-07-23T03:39:28;100059.09;;;18.12;60.10
30021;BME280;16861;52.294;7.760;2022-07-23T03:41:54;100061.22;;;18.06;59.90
30021;BME280;16861;52.294;7.760;2022-07-23T03:44:21;100062.22;;;18.05;60.29
30021;BME280;16861;52.294;7.760;2022-07-23T03:46:47;100065.84;;;18.04;60.54
30021;BME280;16861;52.294;7.760;2022-07-23T03:49:14;100057.13;;;18.02;60.66
30021;BME280;16861;52.294;7.760;2022-07-23T03:51:41;100060.78;;;18.01;60.41
30021;BME280;16861;52.294;7.760;2022-07-23T03:54:08;100062.63;;;18.01;60.42
30021;BME280;16861;52.294;7.760;2022-07-23T03:56:35;100060.91;;;18.00;60.41
30021;BME280;16861;52.294;7.760;2022-07-23T03:59:02;100068.19;;;17.97;60.54
30021;BME280;16861;52.294;7.760;2022-07-23T04:01:30;100061.31;;;17.95;60.54
30021;BME280;16861;52.294;7.760;2022-07-23T04:03:56;100049.91;;;17.93;60.53
30021;BME280;16861;52.294;7.760;2022-07-23T04:06:23;100057.22;;;17.91;60.26
30021;BME280;16861;52.294;7.760;2022-07-23T04:08:50;100059.25;;;17.87;60.34
30021;BME280;16861;52.294;7.760;2022-07-23T04:11:16;100055.91;;;17.85;60.41
30021;BME280;16861;52.294;7.760;2022-07-23T04:13:43;100055.19;;;17.83;60.46
30021;BME280;16861;52.294;7.760;2022-07-23T04:16:09;100065.97;;;17.81;60.46
30021;BME280;16861;52.294;7.760;2022-07-23T04:18:36;100062.56;;;17.79;60.71
30021;BME280;16861;52.294;7.760;2022-07-23T04:21:03;100067.19;;;17.77;60.67
30021;BME280;16861;52.294;7.760;2022-07-23T04:23:29;100056.78;;;17.74;60.57
30021;BME280;16861;52.294;7.760;2022-07-23T04:25:56;100050.59;;;17.74;60.83
30021;BME280;16861;52.294;7.760;2022-07-23T04:28:23;100049.78;;;17.73;61.00
30021;BME280;16861;52.294;7.760;2022-07-23T04:30:49;100056.78;;;17.74;61.06
30021;BME280;16861;52.294;7.760;2022-07-23T04:33:16;100056.78;;;17.74;61.22
30021;BME280;16861;52.294;7.760;2022-07-23T04:35:43;100053.16;;;17.75;61.47
30021;BME280;16861;52.294;7.760;2022-07-23T04:38:09;100060.16;;;17.76;61.46
30021;BME280;16861;52.294;7.760;2022-07-23T04:40:36;100057.38;;;17.78;61.51
30021;BME280;16861;52.294;7.760;2022-07-23T04:43:03;100057.25;;;17.79;61.36
30021;BME280;16861;52.294;7.760;2022-07-23T04:45:29;100061.59;;;17.80;61.34
30021;BME280;16861;52.294;7.760;2022-07-23T04:47:56;100065.09;;;17.81;61.56
30021;BME280;16861;52.294;7.760;2022-07-23T04:50:23;100064.00;;;17.83;61.21
30021;BME280;16861;52.294;7.760;2022-07-23T04:52:51;100065.69;;;17.84;61.53
30021;BME280;16861;52.294;7.760;2022-07-23T04:55:17;100066.41;;;17.87;61.46
30021;BME280;16861;52.294;7.760;2022-07-23T04:57:44;100062.78;;;17.88;61.65
30021;BME280;16861;52.294;7.760;2022-07-23T05:00:11;100068.84;;;17.90;61.68
30021;BME280;16861;52.294;7.760;2022-07-23T05:02:37;100070.53;;;17.91;61.65
30021;BME280;16861;52.294;7.760;2022-07-23T05:05:04;100059.63;;;17.94;61.83
30021;BME280;16861;52.294;7.760;2022-07-23T05:07:31;100060.31;;;17.96;61.48
30021;BME280;16861;52.294;7.760;2022-07-23T05:09:58;100067.22;;;17.98;61.34
30021;BME280;16861;52.294;7.760;2022-07-23T05:12:24;100067.94;;;18.01;61.50
30021;BME280;16861;52.294;7.760;2022-07-23T05:14:51;100077.50;;;18.03;61.32
30021;BME280;16861;52.294;7.760;2022-07-23T05:17:19;100077.22;;;18.06;61.43
30021;BME280;16861;52.294;7.760;2022-07-23T05:19:45;100077.84;;;18.10;61.81
30021;BME280;16861;52.294;7.760;2022-07-23T05:22:12;100086.56;;;18.12;61.66
30021;BME280;16861;52.294;7.760;2022-07-23T05:24:38;100078.31;;;18.15;61.79
30021;BME280;16861;52.294;7.760;2022-07-23T05:27:05;100078.88;;;18.19;62.07
30021;BME280;16861;52.294;7.760;2022-07-23T05:29:32;100077.66;;;18.23;62.05
30021;BME280;16861;52.294;7.760;2022-07-23T05:31:58;100084.41;;;18.27;62.05
30021;BME280;16861;52.294;7.760;2022-07-23T05:34:25;100085.84;;;18.31;61.94
30021;BME280;16861;52.294;7.760;2022-07-23T05:36:52;100093.47;;;18.36;61.69
30021;BME280;16861;52.294;7.760;2022-07-23T05:39:19;100092.34;;;18.39;61.58
30021;BME280;16861;52.294;7.760;2022-07-23T05:41:45;100090.13;;;18.44;61.94
30021;BME280;16861;52.294;7.760;2022-07-23T05:44:12;100095.09;;;18.48;62.06
30021;BME280;16861;52.294;7.760;2022-07-23T05:46:38;100099.16;;;18.53;62.11
30021;BME280;16861;52.294;7.760;2022-07-23T05:49:05;100099.75;;;18.56;61.91
30021;BME280;16861;52.294;7.760;2022-07-23T05:51:32;100111.84;;;18.60;61.82
30021;BME280;16861;52.294;7.760;2022-07-23T05:53:59;100115.09;;;18.64;61.81
30021;BME280;16861;52.294;7.760;2022-07-23T05:56:26;100113.16;;;18.66;61.62
30021;BME280;16861;52.294;7.760;2022-07-23T05:58:52;100121.72;;;18.70;61.26
30021;BME280;16861;52.294;7.760;2022-07-23T06:01:19;100121.47;;;18.73;61.53
30021;BME280;16861;52.294;7.760;2022-07-23T06:03:45;100119.50;;;18.75;61.48
30021;BME280;16861;52.294;7.760;2022-07-23T06:06:12;100124.44;;;18.80;61.84
30021;BME280;16861;52.294;7.760;2022-07-23T06:08:38;100126.72;;;18.84;61.24
30021;BME280;16861;52.294;7.760;2022-07-23T06:11:05;100124.63;;;18.88;61.25
30021;BME280;16861;52.294;7.760;2022-07-23T06:13:31;100122.53;;;18.92;61.64
30021;BME280;16861;52.294;7.760;2022-07-23T06:15:58;100122.28;;;18.95;61.62
30021;BME280;16861;52.294;7.760;2022-07-23T06:18:25;100124.66;;;18.98;61.54
30021;BME280;16861;52.294;7.760;2022-07-23T06:20:51;100127.94;;;19.01;61.77
30021;BME280;16861;52.294;7.760;2022-07-23T06:23:25;100138.31;;;19.05;61.27
30021;BME280;16861;52.294;7.760;2022-07-23T06:25:52;100130.09;;;19.08;61.16
30021;BME280;16861;52.294;7.760;2022-07-23T06:28:19;100130.66;;;19.11;61.49
30021;BME280;16861;52.294;7.760;2022-07-23T06:30:45;100136.59;;;19.15;60.83
30021;BME280;16861;52.294;7.760;2022-07-23T06:33:12;100134.59;;;19.17;60.59
30021;BME280;16861;52.294;7.760;2022-07-23T06:35:39;100137.88;;;19.21;60.76
30021;BME280;16861;52.294;7.760;2022-07-23T06:38:05;100129.72;;;19.22;60.26
30021;BME280;16861;52.294;7.760;2022-07-23T06:40:34;100136.63;;;19.25;60.33
30021;BME280;16861;52.294;7.760;2022-07-23T06:43:00;100143.38;;;19.29;60.20
30021;BME280;16861;52.294;7.760;2022-07-23T06:45:27;100148.44;;;19.32;60.10
30021;BME280;16861;52.294;7.760;2022-07-23T06:47:54;100143.81;;;19.34;59.93
30021;BME280;16861;52.294;7.760;2022-07-23T06:50:20;100149.84;;;19.36;59.92
30021;BME280;16861;52.294;7.760;2022-07-23T06:52:47;100153.13;;;19.40;60.08
30021;BME280;16861;52.294;7.760;2022-07-23T06:55:13;100155.50;;;19.43;60.23
30021;BME280;16861;52.294;7.760;2022-07-23T06:57:41;100156.91;;;19.47;59.97
30021;BME280;16861;52.294;7.760;2022-07-23T07:00:08;100159.31;;;19.50;59.59
30021;BME280;16861;52.294;7.760;2022-07-23T07:02:34;100149.19;;;19.54;59.66
30021;BME280;16861;52.294;7.760;2022-07-23T07:05:02;100153.41;;;19.57;59.38
30021;BME280;16861;52.294;7.760;2022-07-23T07:07:32;100154.00;;;19.60;59.34
30021;BME280;16861;52.294;7.760;2022-07-23T07:09:58;100151.03;;;19.63;59.60
30021;BME280;16861;52.294;7.760;2022-07-23T07:12:25;100162.31;;;19.67;59.33
30021;BME280;16861;52.294;7.760;2022-07-23T07:14:51;100153.88;;;19.72;59.53
30021;BME280;16861;52.294;7.760;2022-07-23T07:17:19;100162.31;;;19.77;59.56
30021;BME280;16861;52.294;7.760;2022-07-23T07:19:46;100160.94;;;19.83;59.54
30021;BME280;16861;52.294;7.760;2022-07-23T07:22:13;100157.59;;;19.90;59.64
30021;BME280;16861;52.294;7.760;2022-07-23T07:24:39;100159.59;;;19.98;59.77
30021;BME280;16861;52.294;7.760;2022-07-23T07:27:06;100163.41;;;20.05;59.71
30021;BME280;16861;52.294;7.760;2022-07-23T07:29:33;100157.06;;;20.16;59.88
30021;BME280;16861;52.294;7.760;2022-07-23T07:31:59;100163.94;;;20.29;59.90
30021;BME280;16861;52.294;7.760;2022-07-23T07:34:26;100168.03;;;20.43;59.85
30021;BME280;16861;52.294;7.760;2022-07-23T07:36:53;100167.88;;;20.54;59.00
30021;BME280;16861;52.294;7.760;2022-07-23T07:39:19;100173.50;;;20.61;58.12
30021;BME280;16861;52.294;7.760;2022-07-23T07:41:46;100170.25;;;20.67;57.77
30021;BME280;16861;52.294;7.760;2022-07-23T07:44:12;100169.25;;;20.68;57.26
30021;BME280;16861;52.294;7.760;2022-07-23T07:46:39;100171.91;;;20.68;56.95
30021;BME280;16861;52.294;7.760;2022-07-23T07:49:06;100176.72;;;20.65;56.60
30021;BME280;16861;52.294;7.760;2022-07-23T07:51:32;100172.78;;;20.59;56.60
30021;BME280;16861;52.294;7.760;2022-07-23T07:54:01;100176.72;;;20.55;56.62
30021;BME280;16861;52.294;7.760;2022-07-23T07:56:28;100174.19;;;20.53;56.74
30021;BME280;16861;52.294;7.760;2022-07-23T07:58:55;100180.41;;;20.54;57.10
30021;BME280;16861;52.294;7.760;2022-07-23T08:01:22;100177.44;;;20.57;56.81
30021;BME280;16861;52.294;7.760;2022-07-23T08:03:51;100177.84;;;20.62;57.14
30021;BME280;16861;52.294;7.760;2022-07-23T08:06:17;100181.66;;;20.69;56.24
30021;BME280;16861;52.294;7.760;2022-07-23T08:08:46;100181.78;;;20.78;55.69
30021;BME280;16861;52.294;7.760;2022-07-23T08:11:13;100179.38;;;20.85;56.02
30021;BME280;16861;52.294;7.760;2022-07-23T08:13:40;100184.03;;;20.92;55.73
30021;BME280;16861;52.294;7.760;2022-07-23T08:16:07;100179.78;;;21.00;55.67
30021;BME280;16861;52.294;7.760;2022-07-23T08:18:33;100192.56;;;21.06;55.35
30021;BME280;16861;52.294;7.760;2022-07-23T08:21:00;100193.84;;;21.12;55.31
30021;BME280;16861;52.294;7.760;2022-07-23T08:23:27;100190.69;;;21.16;55.06
30021;BME280;16861;52.294;7.760;2022-07-23T08:25:56;100199.00;;;21.23;54.78
30021;BME280;16861;52.294;7.760;2022-07-23T08:28:23;100191.25;;;21.30;55.20
30021;BME280;16861;52.294;7.760;2022-07-23T08:30:49;100187.97;;;21.36;54.73
30021;BME280;16861;52.294;7.760;2022-07-23T08:33:17;100192.56;;;21.44;54.18
30021;BME280;16861;52.294;7.760;2022-07-23T08:35:58;100197.03;;;21.53;53.89
30021;BME280;16861;52.294;7.760;2022-07-23T08:38:25;100196.47;;;21.59;54.20
30021;BME280;16861;52.294;7.760;2022-07-23T08:40:54;100203.06;;;21.65;53.62
30021;BME280;16861;52.294;7.760;2022-07-23T08:43:22;100200.63;;;21.72;53.50
30021;BME280;16861;52.294;7.760;2022-07-23T08:45:51;100198.91;;;21.81;53.38
30021;BME280;16861;52.294;7.760;2022-07-23T08:48:21;100210.00;;;21.86;52.66
30021;BME280;16861;52.294;7.760;2022-07-23T08:50:51;100203.34;;;21.90;52.62
30021;BME280;16861;52.294;7.760;2022-07-23T08:53:20;100206.25;;;21.97;53.14
30021;BME280;16861;52.294;7.760;2022-07-23T08:55:48;100200.16;;;22.05;52.30
30021;BME280;16861;52.294;7.760;2022-07-23T08:58:16;100203.75;;;22.13;52.82
30021;BME280;16861;52.294;7.760;2022-07-23T09:00:43;100202.16;;;22.21;52.46
30021;BME280;16861;52.294;7.760;2022-07-23T09:03:21;100209.06;;;22.23;51.35
30021;BME280;16861;52.294;7.760;2022-07-23T09:05:53;100207.75;;;22.28;51.34
30021;BME280;16861;52.294;7.760;2022-07-23T09:08:22;100214.78;;;22.29;51.29
30021;BME280;16861;52.294;7.760;2022-07-23T09:10:57;100206.75;;;22.29;51.19
30021;BME280;16861;52.294;7.760;2022-07-23T09:13:37;100206.75;;;22.29;50.82
30021;BME280;16861;52.294;7.760;2022-07-23T09:16:13;100210.50;;;22.36;50.52
30021;BME280;16861;52.294;7.760;2022-07-23T09:18:46;100205.22;;;22.44;51.19
30021;BME280;16861;52.294;7.760;2022-07-23T09:21:27;100204.44;;;22.52;50.83
30021;BME280;16861;52.294;7.760;2022-07-23T09:24:08;100205.56;;;22.59;49.94
30021;BME280;16861;52.294;7.760;2022-07-23T09:26:43;100203.91;;;22.67;50.10
30021;BME280;16861;52.294;7.760;2022-07-23T09:29:17;100207.97;;;22.71;49.58
30021;BME280;16861;52.294;7.760;2022-07-23T09:31:51;100202.16;;;22.75;50.04
30021;BME280;16861;52.294;7.760;2022-07-23T09:34:24;100198.38;;;22.86;50.23
30021;BME280;16861;52.294;7.760;2022-07-23T09:36:57;100209.97;;;22.95;49.96
30021;BME280;16861;52.294;7.760;2022-07-23T09:39:29;100203.84;;;23.03;49.46
30021;BME280;16861;52.294;7.760;2022-07-23T09:41:56;100215.47;;;23.12;49.77
30021;BME280;16861;52.294;7.760;2022-07-23T09:44:23;100209.47;;;23.18;49.05
30021;BME280;16861;52.294;7.760;2022-07-23T09:46:58;100215.19;;;23.23;49.13
30021;BME280;16861;52.294;7.760;2022-07-23T09:49:25;100221.59;;;23.30;49.19
30021;BME280;16861;52.294;7.760;2022-07-23T09:51:57;100212.25;;;23.35;48.21
30021;BME280;16861;52.294;7.760;2022-07-23T09:54:35;100224.03;;;23.42;48.04
30021;BME280;16861;52.294;7.760;2022-07-23T09:57:08;100217.34;;;23.46;47.96
30021;BME280;16861;52.294;7.760;2022-07-23T09:59:41;100214.69;;;23.54;48.67
30021;BME280;16861;52.294;7.760;2022-07-23T10:02:11;100206.16;;;23.59;47.90
30021;BME280;16861;52.294;7.760;2022-07-23T10:04:42;100210.72;;;23.67;48.63
30021;BME280;16861;52.294;7.760;2022-07-23T10:07:10;100204.69;;;23.73;48.43
30021;BME280;16861;52.294;7.760;2022-07-23T10:09:39;100203.88;;;23.81;47.71
30021;BME280;16861;52.294;7.760;2022-07-23T10:12:12;100207.75;;;23.87;46.79
30021;BME280;16861;52.294;7.760;2022-07-23T10:14:58;100209.47;;;23.96;47.76
30021;BME280;16861;52.294;7.760;2022-07-23T10:17:29;100205.78;;;23.97;47.04
30021;BME280;16861;52.294;7.760;2022-07-23T10:19:57;100199.72;;;24.03;47.32
30021;BME280;16861;52.294;7.760;2022-07-23T10:22:26;100201.06;;;24.07;47.25
30021;BME280;16861;52.294;7.760;2022-07-23T10:33:20;100195.44;;;24.36;46.23
30021;BME280;16861;52.294;7.760;2022-07-23T10:36:23;100194.41;;;24.37;45.80
30021;BME280;16861;52.294;7.760;2022-07-23T10:41:41;100211.91;;;24.57;46.29
30021;BME280;16861;52.294;7.760;2022-07-23T10:44:33;100206.19;;;24.60;45.70
30021;BME280;16861;52.294;7.760;2022-07-23T10:47:04;100207.53;;;24.73;46.03
30021;BME280;16861;52.294;7.760;2022-07-23T10:49:48;100193.38;;;24.88;46.95
30021;BME280;16861;52.294;7.760;2022-07-23T10:52:21;100195.22;;;25.04;46.36
30021;BME280;16861;52.294;7.760;2022-07-23T10:54:55;100199.69;;;25.28;48.07
30021;BME280;16861;52.294;7.760;2022-07-23T10:57:25;100203.78;;;25.64;47.26
30021;BME280;16861;52.294;7.760;2022-07-23T11:02:29;100203.03;;;26.57;45.68
30021;BME280;16861;52.294;7.760;2022-07-23T11:05:23;100202.19;;;27.10;45.07
30021;BME280;16861;52.294;7.760;2022-07-23T11:10:46;100196.34;;;28.26;41.19
30021;BME280;16861;52.294;7.760;2022-07-23T11:24:15;100196.63;;;30.48;38.40
30021;BME280;16861;52.294;7.760;2022-07-23T11:32:11;100188.56;;;31.35;36.51
30021;BME280;16861;52.294;7.760;2022-07-23T11:34:48;100190.19;;;31.49;35.45
30021;BME280;16861;52.294;7.760;2022-07-23T11:40:04;100190.47;;;31.80;35.28
30021;BME280;16861;52.294;7.760;2022-07-23T11:42:33;100188.06;;;31.97;35.21
30021;BME280;16861;52.294;7.760;2022-07-23T11:45:00;100185.03;;;32.12;35.13
30021;BME280;16861;52.294;7.760;2022-07-23T11:47:27;100192.88;;;32.27;34.37
30021;BME280;16861;52.294;7.760;2022-07-23T11:49:54;100197.63;;;32.39;33.98
30021;BME280;16861;52.294;7.760;2022-07-23T11:52:22;100193.59;;;32.48;34.12
30021;BME280;16861;52.294;7.760;2022-07-23T11:54:57;100203.38;;;32.56;32.96
30021;BME280;16861;52.294;7.760;2022-07-23T11:57:30;100199.69;;;32.69;33.89
30021;BME280;16861;52.294;7.760;2022-07-23T12:00:02;100201.22;;;32.83;34.18
30021;BME280;16861;52.294;7.760;2022-07-23T12:02:30;100198.78;;;33.00;33.76
30021;BME280;16861;52.294;7.760;2022-07-23T12:04:57;100192.50;;;33.19;33.24
30021;BME280;16861;52.294;7.760;2022-07-23T12:07:41;100197.34;;;33.35;34.20
30021;BME280;16861;52.294;7.760;2022-07-23T12:10:15;100196.56;;;33.65;32.98
30021;BME280;16861;52.294;7.760;2022-07-23T12:12:54;100198.53;;;33.89;31.93
30021;BME280;16861;52.294;7.760;2022-07-23T12:15:23;100194.47;;;34.10;32.43
30021;BME280;16861;52.294;7.760;2022-07-23T12:17:51;100192.72;;;34.28;30.79
30021;BME280;16861;52.294;7.760;2022-07-23T12:20:24;100186.44;;;34.39;31.42
30021;BME280;16861;52.294;7.760;2022-07-23T12:22:59;100187.03;;;34.53;30.28
30021;BME280;16861;52.294;7.760;2022-07-23T12:25:39;100198.25;;;34.64;30.49
30021;BME280;16861;52.294;7.760;2022-07-23T12:28:31;100196.22;;;34.71;31.86
30021;BME280;16861;52.294;7.760;2022-07-23T12:30:59;100195.28;;;34.89;30.61
30021;BME280;16861;52.294;7.760;2022-07-23T12:33:32;100188.34;;;34.99;29.30
30021;BME280;16861;52.294;7.760;2022-07-23T12:36:02;100200.47;;;35.15;30.26
30021;BME280;16861;52.294;7.760;2022-07-23T12:38:46;100197.22;;;35.30;28.83
30021;BME280;16861;52.294;7.760;2022-07-23T12:41:14;100200.38;;;35.51;29.41
30021;BME280;16861;52.294;7.760;2022-07-23T12:43:42;100186.44;;;35.64;28.50
30021;BME280;16861;52.294;7.760;2022-07-23T12:46:15;100187.94;;;35.72;28.25
30021;BME280;16861;52.294;7.760;2022-07-23T12:51:28;100179.41;;;35.68;27.94
30021;BME280;16861;52.294;7.760;2022-07-23T12:54:13;100193.34;;;35.55;28.66
30021;BME280;16861;52.294;7.760;2022-07-23T12:56:40;100189.63;;;35.61;28.12
30021;BME280;16861;52.294;7.760;2022-07-23T12:59:14;100192.13;;;35.63;28.59
30021;BME280;16861;52.294;7.760;2022-07-23T13:01:53;100185.34;;;35.65;28.25
30021;BME280;16861;52.294;7.760;2022-07-23T13:04:24;100184.16;;;35.73;28.41
30021;BME280;16861;52.294;7.760;2022-07-23T13:06:53;100190.03;;;35.82;28.18
30021;BME280;16861;52.294;7.760;2022-07-23T13:09:28;100190.25;;;35.92;28.38
30021;BME280;16861;52.294;7.760;2022-07-23T13:11:59;100184.78;;;36.09;27.84
30021;BME280;16861;52.294;7.760;2022-07-23T13:14:26;100198.50;;;36.27;28.04
30021;BME280;16861;52.294;7.760;2022-07-23T13:16:54;100200.41;;;36.43;27.01
30021;BME280;16861;52.294;7.760;2022-07-23T13:19:41;100187.75;;;36.59;27.55
30021;BME280;16861;52.294;7.760;2022-07-23T13:22:07;100202.81;;;36.74;26.93
30021;BME280;16861;52.294;7.760;2022-07-23T13:24:54;100201.69;;;36.92;26.54
30021;BME280;16861;52.294;7.760;2022-07-23T13:27:20;100196.84;;;36.99;26.06
30021;BME280;16861;52.294;7.760;2022-07-23T13:29:47;100194.41;;;37.03;26.61
30021;BME280;16861;52.294;7.760;2022-07-23T13:32:13;100202.47;;;37.10;26.19
30021;BME280;16861;52.294;7.760;2022-07-23T13:34:40;100203.91;;;37.12;25.94
30021;BME280;16861;52.294;7.760;2022-07-23T13:37:07;100201.41;;;37.11;26.34